Hensley, Arkansas
Current Conditions -  °F | °C
As of 9:53 PM on Wednesday 28 Jan 2015 (Local Time) from KLIT Reporting Station
Scattered Clouds Scattered Clouds  
Wind Chill: 11°   Ceiling: Unl
Heat Index: 11°   Visibility: 10mi
Dew Point:   Wind: 6mph
Humidity: 63%   Direction: 170°S
Pressure: 30.03"   Gusts: NA
Location:  34.51°N, 92.21°W
Report Text: KLIT 290353Z 17005KT 10SM SCT250 11/04 A3003 RMK AO2 SLP170 T01110044
Loading
Personal Weather Stations






























Interactive Weather Map New forecast layout! Learn more

10-Day Weather Forecast

Advertisements
Track Severe Weather on mobile